createdAt,value
2018-07-02T00:02:20.045Z,15.90
2018-07-02T00:04:48.419Z,15.80
2018-07-02T00:07:19.205Z,15.80
2018-07-02T00:09:47.981Z,15.70
2018-07-02T00:12:17.337Z,15.70
2018-07-02T00:17:14.787Z,15.70
2018-07-02T00:19:43.139Z,15.60
2018-07-02T00:22:12.197Z,15.50
2018-07-02T00:27:08.857Z,15.50
2018-07-02T00:29:37.241Z,15.50
2018-07-02T00:34:33.807Z,15.40
2018-07-02T00:37:02.143Z,15.30
2018-07-02T00:39:30.504Z,15.30
2018-07-02T00:41:58.877Z,15.20
2018-07-02T00:44:27.209Z,15.20
2018-07-02T00:46:55.570Z,15.20
2018-07-02T00:49:23.952Z,15.10
2018-07-02T00:51:52.309Z,15.10
2018-07-02T00:54:20.683Z,15.10
2018-07-02T00:56:49.025Z,15.00
2018-07-02T00:59:17.437Z,14.90
2018-07-02T01:01:45.791Z,14.90
2018-07-02T01:04:14.164Z,14.80
2018-07-02T01:06:42.526Z,14.80
2018-07-02T01:09:10.937Z,14.80
2018-07-02T01:11:39.262Z,14.70
2018-07-02T01:14:07.761Z,14.70
2018-07-02T01:16:36.200Z,14.70
2018-07-02T01:19:04.632Z,14.60
2018-07-02T01:21:34.128Z,14.50
2018-07-02T01:24:02.492Z,14.50
2018-07-02T01:26:30.879Z,14.50
2018-07-02T01:28:59.258Z,14.40
2018-07-02T01:31:27.603Z,14.40
2018-07-02T01:33:55.941Z,14.30
2018-07-02T01:36:24.308Z,14.30
2018-07-02T01:38:52.663Z,14.20
2018-07-02T01:41:21.019Z,14.20
2018-07-02T01:43:49.396Z,14.30
2018-07-02T01:46:17.741Z,14.20
2018-07-02T01:48:46.098Z,14.20
2018-07-02T01:51:14.513Z,14.20
2018-07-02T01:53:42.856Z,14.20
2018-07-02T01:56:11.186Z,14.10
2018-07-02T01:58:39.524Z,14.10
2018-07-02T02:01:07.888Z,13.90
2018-07-02T02:03:36.223Z,13.90
2018-07-02T02:06:04.787Z,13.90
2018-07-02T02:08:33.117Z,13.90
2018-07-02T02:11:01.487Z,13.90
2018-07-02T02:13:29.826Z,13.80
2018-07-02T02:15:58.149Z,13.80
2018-07-02T02:18:26.493Z,13.70
2018-07-02T02:20:54.825Z,13.70
2018-07-02T02:23:23.163Z,13.80
2018-07-02T02:25:51.517Z,13.70
2018-07-02T02:28:19.868Z,13.80
2018-07-02T02:30:48.248Z,13.70
2018-07-02T02:33:16.602Z,13.70
2018-07-02T02:35:44.946Z,13.60
2018-07-02T02:38:13.641Z,13.60
2018-07-02T02:40:41.988Z,13.50
2018-07-02T02:43:10.377Z,13.50
2018-07-02T02:45:38.716Z,13.50
2018-07-02T02:48:07.047Z,13.50
2018-07-02T02:50:35.382Z,13.40
2018-07-02T02:53:03.779Z,13.40
2018-07-02T02:55:32.119Z,13.30
2018-07-02T02:58:00.458Z,13.30
2018-07-02T03:00:28.774Z,13.30
2018-07-02T03:02:57.194Z,13.30
2018-07-02T03:05:25.547Z,13.20
2018-07-02T03:07:53.891Z,13.20
2018-07-02T03:10:22.264Z,13.20
2018-07-02T03:12:50.600Z,13.10
2018-07-02T03:15:18.951Z,13.00
2018-07-02T03:17:47.291Z,13.00
2018-07-02T03:20:15.740Z,13.00
2018-07-02T03:22:44.067Z,13.00
2018-07-02T03:25:12.373Z,13.00
2018-07-02T03:27:40.769Z,13.00
2018-07-02T03:30:09.094Z,12.90
2018-07-02T03:32:37.439Z,12.90
2018-07-02T03:35:05.829Z,12.90
2018-07-02T03:37:34.190Z,12.90
2018-07-02T03:40:02.596Z,13.00
2018-07-02T03:42:30.962Z,12.80
2018-07-02T03:44:59.325Z,12.80
2018-07-02T03:47:27.673Z,12.80
2018-07-02T03:49:55.989Z,12.80
2018-07-02T03:52:24.417Z,12.70
2018-07-02T03:54:52.784Z,12.80
2018-07-02T03:57:21.218Z,12.70
2018-07-02T03:59:49.569Z,12.70
2018-07-02T04:02:17.930Z,12.70
2018-07-02T04:04:46.301Z,12.70
2018-07-02T04:07:14.645Z,12.70
2018-07-02T04:09:43.024Z,12.70
2018-07-02T04:12:11.427Z,12.70
2018-07-02T04:14:39.790Z,12.60
2018-07-02T04:17:08.226Z,12.70
2018-07-02T04:19:36.575Z,12.90
2018-07-02T04:22:05.007Z,13.00
2018-07-02T04:24:33.348Z,13.00
2018-07-02T04:27:01.690Z,13.10
2018-07-02T04:29:30.035Z,13.20
2018-07-02T04:31:58.373Z,13.30
2018-07-02T04:34:26.767Z,13.40
2018-07-02T04:36:55.126Z,13.50
2018-07-02T04:39:23.516Z,13.50
2018-07-02T04:41:51.888Z,13.50
2018-07-02T04:44:20.246Z,13.70
2018-07-02T04:46:48.635Z,13.70
2018-07-02T04:49:17.015Z,13.90
2018-07-02T04:51:45.456Z,13.90
2018-07-02T04:54:13.832Z,13.90
2018-07-02T04:56:42.174Z,14.00
2018-07-02T04:59:10.554Z,14.00
2018-07-02T05:01:38.965Z,14.20
2018-07-02T05:04:07.305Z,14.30
2018-07-02T05:06:35.648Z,14.40
2018-07-02T05:09:05.762Z,14.60
2018-07-02T05:11:34.156Z,14.70
2018-07-02T05:14:02.488Z,15.00
2018-07-02T05:16:30.870Z,15.00
2018-07-02T05:18:59.227Z,15.10
2018-07-02T05:21:27.591Z,15.30
2018-07-02T05:23:55.956Z,15.50
2018-07-02T05:26:24.330Z,15.40
2018-07-02T05:28:52.945Z,15.60
2018-07-02T05:31:21.326Z,15.70
2018-07-02T05:33:49.711Z,15.80
2018-07-02T05:36:18.036Z,15.80
2018-07-02T05:38:46.474Z,16.00
2018-07-02T05:41:14.783Z,16.20
2018-07-02T05:43:43.221Z,16.30
2018-07-02T05:46:11.510Z,16.40
2018-07-02T05:48:39.873Z,16.60
2018-07-02T05:51:08.190Z,16.60
2018-07-02T05:53:36.478Z,16.80
2018-07-02T05:56:04.817Z,17.00
2018-07-02T05:58:33.191Z,17.20
2018-07-02T06:01:01.551Z,17.40
2018-07-02T06:03:29.891Z,17.70
2018-07-02T06:05:58.252Z,17.90
2018-07-02T06:08:26.565Z,18.10
2018-07-02T06:10:54.938Z,18.00
2018-07-02T06:13:23.305Z,18.10
2018-07-02T06:15:51.692Z,18.20
2018-07-02T06:18:19.988Z,18.30
2018-07-02T06:20:48.406Z,18.60
2018-07-02T06:23:16.747Z,19.00
2018-07-02T06:25:45.080Z,18.80
2018-07-02T06:28:13.450Z,18.70
2018-07-02T06:30:41.768Z,18.70
2018-07-02T06:33:10.484Z,18.90
2018-07-02T06:35:38.819Z,19.10
2018-07-02T06:38:07.128Z,19.30
2018-07-02T06:40:35.525Z,19.50
2018-07-02T06:43:04.102Z,19.80
2018-07-02T06:45:32.457Z,19.70
2018-07-02T06:48:00.814Z,19.80
2018-07-02T06:50:29.149Z,19.70
2018-07-02T06:52:57.516Z,19.80
2018-07-02T06:55:26.050Z,19.80
2018-07-02T06:57:57.051Z,20.20
2018-07-02T07:00:25.385Z,20.10
2018-07-02T07:02:53.711Z,20.70
2018-07-02T07:05:22.023Z,21.20
2018-07-02T07:07:50.377Z,21.50
2018-07-02T07:10:18.780Z,21.60
2018-07-02T07:12:47.153Z,21.50
2018-07-02T07:15:15.483Z,21.60
2018-07-02T07:17:43.836Z,21.70
2018-07-02T07:20:12.197Z,22.00
2018-07-02T07:22:40.557Z,22.50
2018-07-02T07:25:09.036Z,23.00
2018-07-02T07:27:37.411Z,22.60
2018-07-02T07:30:05.777Z,22.80
2018-07-02T07:32:34.115Z,23.00
2018-07-02T07:35:02.516Z,23.20
2018-07-02T07:37:30.923Z,23.00
2018-07-02T07:39:59.997Z,23.40
2018-07-02T07:42:28.529Z,23.60
2018-07-02T07:44:56.974Z,23.30
2018-07-02T07:47:25.588Z,23.30
2018-07-02T07:49:54.444Z,23.40
2018-07-02T07:52:22.867Z,23.70
2018-07-02T07:54:51.236Z,23.60
2018-07-02T07:59:47.848Z,23.50
2018-07-02T08:02:16.249Z,22.90
2018-07-02T08:04:44.772Z,22.40
2018-07-02T08:07:13.234Z,22.30
2018-07-02T08:14:38.163Z,23.00
2018-07-02T08:17:06.591Z,22.80
2018-07-02T08:19:35.044Z,23.00
2018-07-02T08:22:03.372Z,23.20
2018-07-02T08:24:31.758Z,23.30
2018-07-02T08:27:00.145Z,23.30
2018-07-02T08:29:28.621Z,22.90
2018-07-02T08:31:57.352Z,23.00
2018-07-02T08:34:26.011Z,23.10
2018-07-02T08:36:55.197Z,23.00
2018-07-02T08:39:23.557Z,22.40
2018-07-02T08:41:51.963Z,22.70
2018-07-02T08:44:20.406Z,22.60
2018-07-02T08:46:48.830Z,23.00
2018-07-02T08:49:17.157Z,23.50
2018-07-02T08:51:45.530Z,23.90
2018-07-02T08:54:14.076Z,23.90
2018-07-02T08:56:42.906Z,23.50
2018-07-02T08:59:11.328Z,23.30
2018-07-02T09:01:40.502Z,23.70
2018-07-02T09:04:08.849Z,23.50
2018-07-02T09:06:37.412Z,23.70
2018-07-02T09:09:08.836Z,23.50
2018-07-02T09:11:37.438Z,23.00
2018-07-02T09:14:05.853Z,23.00
2018-07-02T09:16:34.249Z,23.10
2018-07-02T09:19:02.620Z,23.10
2018-07-02T09:21:31.198Z,23.00
2018-07-02T09:23:59.588Z,23.10
2018-07-02T09:26:27.942Z,23.20
2018-07-02T09:28:56.331Z,23.30
2018-07-02T09:31:24.717Z,23.30
2018-07-02T09:33:53.103Z,23.30
2018-07-02T09:36:21.499Z,23.40
2018-07-02T09:38:49.960Z,23.50
2018-07-02T09:41:18.351Z,24.00
2018-07-02T09:43:46.801Z,24.00
2018-07-02T09:46:15.191Z,24.10
2018-07-02T09:48:43.673Z,24.00
2018-07-02T09:51:12.061Z,23.80
2018-07-02T09:53:40.458Z,24.10
2018-07-02T09:56:08.848Z,24.00
2018-07-02T09:58:37.176Z,24.00
2018-07-02T10:01:05.659Z,23.80
2018-07-02T10:03:34.009Z,23.70
2018-07-02T10:06:02.917Z,23.80
2018-07-02T10:08:31.287Z,23.80
2018-07-02T10:10:59.651Z,24.10
2018-07-02T10:13:28.053Z,24.20
2018-07-02T10:15:56.448Z,24.00
2018-07-02T10:18:24.781Z,23.70
2018-07-02T10:20:53.496Z,23.80
2018-07-02T10:23:21.808Z,24.10
2018-07-02T10:25:50.186Z,24.30
2018-07-02T10:28:18.571Z,24.10
2018-07-02T10:30:46.996Z,23.80
2018-07-02T10:33:15.869Z,24.10
2018-07-02T10:35:44.239Z,24.40
2018-07-02T10:43:09.040Z,24.10
2018-07-02T10:45:37.390Z,24.10
2018-07-02T10:48:05.808Z,24.20
2018-07-02T10:50:34.199Z,24.00
2018-07-02T10:53:02.510Z,24.10
2018-07-02T10:55:30.849Z,24.40
2018-07-02T10:57:59.208Z,24.70
2018-07-02T11:00:27.569Z,24.60
2018-07-02T11:02:55.961Z,24.50
2018-07-02T11:05:24.304Z,24.50
2018-07-02T11:07:52.702Z,24.70
2018-07-02T11:10:21.118Z,24.40
2018-07-02T11:12:49.513Z,24.60
2018-07-02T11:15:17.893Z,24.50
2018-07-02T11:17:46.276Z,24.90
2018-07-02T11:20:14.621Z,25.20
2018-07-02T11:22:43.026Z,25.40
2018-07-02T11:25:11.617Z,25.50
2018-07-02T11:27:40.191Z,25.80
2018-07-02T11:30:08.530Z,25.90
2018-07-02T11:32:36.884Z,25.90
2018-07-02T11:35:05.300Z,25.70
2018-07-02T11:37:33.721Z,25.50
2018-07-02T11:40:02.015Z,25.70
2018-07-02T11:42:30.425Z,25.90
2018-07-02T11:44:58.782Z,25.80
2018-07-02T11:47:27.184Z,25.30
2018-07-02T11:49:55.586Z,25.20
2018-07-02T11:52:24.056Z,25.70
2018-07-02T11:54:52.484Z,25.80
2018-07-02T11:57:20.926Z,25.80
2018-07-02T11:59:49.482Z,26.40
2018-07-02T12:02:17.793Z,27.00
2018-07-02T12:04:46.214Z,26.60
2018-07-02T12:07:14.601Z,26.30
2018-07-02T12:09:43.032Z,26.00
2018-07-02T12:12:11.409Z,26.00
2018-07-02T12:14:39.785Z,26.60
2018-07-02T12:17:08.133Z,27.10
2018-07-02T12:19:36.577Z,28.00
2018-07-02T12:22:05.076Z,27.80
2018-07-02T12:24:33.528Z,28.10
2018-07-02T12:27:02.193Z,28.60
2018-07-02T12:31:58.694Z,28.60
2018-07-02T12:34:27.048Z,29.00
2018-07-02T12:36:55.527Z,27.80
2018-07-02T12:39:23.862Z,28.00
2018-07-02T12:41:52.238Z,28.90
2018-07-02T12:44:20.602Z,29.50
2018-07-02T12:46:50.362Z,29.40
2018-07-02T12:51:47.246Z,29.60
2018-07-02T12:54:15.693Z,29.70
2018-07-02T12:56:44.392Z,29.60
2018-07-02T12:59:12.733Z,29.90
2018-07-02T13:01:41.292Z,30.30
2018-07-02T13:04:09.737Z,29.80
2018-07-02T13:06:38.110Z,29.50
2018-07-02T13:09:08.806Z,29.70
2018-07-02T13:11:37.177Z,28.90
2018-07-02T13:14:06.331Z,28.20
2018-07-02T13:16:34.730Z,28.10
2018-07-02T13:19:03.181Z,28.10
2018-07-02T13:21:31.509Z,28.40
2018-07-02T13:23:59.934Z,28.40
2018-07-02T13:26:28.308Z,28.50
2018-07-02T13:28:56.655Z,28.80
2018-07-02T13:31:25.077Z,29.20
2018-07-02T13:33:53.527Z,30.00
2018-07-02T13:36:21.986Z,30.90
2018-07-02T13:38:50.602Z,30.60
2018-07-02T13:41:19.580Z,30.00
2018-07-02T13:43:48.006Z,31.00
2018-07-02T13:46:16.657Z,30.70
2018-07-02T13:48:45.119Z,30.50
2018-07-02T13:51:13.535Z,29.80
2018-07-02T13:53:41.873Z,30.20
2018-07-02T13:56:10.262Z,30.60
2018-07-02T13:58:38.589Z,30.70
2018-07-02T14:01:07.074Z,30.90
2018-07-02T14:03:35.502Z,31.10
2018-07-02T14:06:03.881Z,31.10
2018-07-02T14:08:32.310Z,30.80
2018-07-02T14:11:00.679Z,30.60
2018-07-02T14:13:29.200Z,30.40
2018-07-02T14:15:57.657Z,30.50
2018-07-02T14:18:26.078Z,30.20
2018-07-02T14:20:54.449Z,31.00
2018-07-02T14:23:22.773Z,31.80
2018-07-02T14:25:51.137Z,30.90
2018-07-02T14:28:19.485Z,31.30
2018-07-02T14:30:47.817Z,32.10
2018-07-02T14:33:16.238Z,32.10
2018-07-02T14:35:44.574Z,32.40
2018-07-02T14:38:12.931Z,33.10
2018-07-02T14:40:41.317Z,34.20
2018-07-02T14:43:09.701Z,32.70
2018-07-02T14:45:38.129Z,32.40
2018-07-02T14:48:06.715Z,31.50
2018-07-02T14:50:35.076Z,31.60
2018-07-02T14:53:03.459Z,32.00
2018-07-02T14:55:31.877Z,32.10
2018-07-02T14:58:00.287Z,32.60
2018-07-02T15:00:28.650Z,32.40
2018-07-02T15:02:57.032Z,31.80
2018-07-02T15:05:28.001Z,32.20
2018-07-02T15:07:56.397Z,32.50
2018-07-02T15:10:24.723Z,32.30
2018-07-02T15:12:53.076Z,31.80
2018-07-02T15:15:21.466Z,32.00
2018-07-02T15:17:49.857Z,31.20
2018-07-02T15:20:18.405Z,31.00
2018-07-02T15:22:46.795Z,31.30
2018-07-02T15:25:15.164Z,31.30
2018-07-02T15:27:43.541Z,31.70
2018-07-02T15:30:11.937Z,31.20
2018-07-02T15:32:40.295Z,31.80
2018-07-02T15:35:08.725Z,32.50
2018-07-02T15:37:37.102Z,32.70
2018-07-02T15:40:05.469Z,32.80
2018-07-02T15:42:33.881Z,32.50
2018-07-02T15:45:02.215Z,32.80
2018-07-02T15:47:30.583Z,32.60
2018-07-02T15:49:58.953Z,32.60
2018-07-02T15:52:27.322Z,32.90
2018-07-02T15:54:55.693Z,33.50
2018-07-02T15:57:24.085Z,32.90
2018-07-02T15:59:52.817Z,32.50
2018-07-02T16:02:21.220Z,31.80
2018-07-02T16:04:49.762Z,31.60
2018-07-02T16:07:18.431Z,32.10
2018-07-02T16:09:46.830Z,31.40
2018-07-02T16:12:15.510Z,32.30
2018-07-02T16:14:44.875Z,33.20
2018-07-02T16:17:13.483Z,32.90
2018-07-02T16:19:41.941Z,32.80
2018-07-02T16:22:10.348Z,32.70
2018-07-02T16:24:38.722Z,32.20
2018-07-02T16:27:07.082Z,32.40
2018-07-02T16:29:35.462Z,32.00
2018-07-02T16:32:03.865Z,31.80
2018-07-02T16:34:32.255Z,31.80
2018-07-02T16:37:00.716Z,31.30
2018-07-02T16:39:29.100Z,30.60
2018-07-02T16:41:57.440Z,30.60
2018-07-02T16:44:25.824Z,30.50
2018-07-02T16:46:54.429Z,30.20
2018-07-02T16:49:22.814Z,30.30
2018-07-02T16:51:51.203Z,31.10
2018-07-02T16:54:19.536Z,31.00
2018-07-02T16:56:48.011Z,31.00
2018-07-02T16:59:16.381Z,31.00
2018-07-02T17:01:44.758Z,30.90
2018-07-02T17:04:13.119Z,30.50
2018-07-02T17:06:41.477Z,30.00
2018-07-02T17:09:11.165Z,29.40
2018-07-02T17:11:40.063Z,29.20
2018-07-02T17:14:08.752Z,28.80
2018-07-02T17:16:37.825Z,29.10
2018-07-02T17:19:06.357Z,28.50
2018-07-02T17:24:02.853Z,27.50
2018-07-02T17:26:31.250Z,27.10
2018-07-02T17:28:59.637Z,27.10
2018-07-02T17:31:28.014Z,27.20
2018-07-02T17:33:56.371Z,26.80
2018-07-02T17:36:24.787Z,26.30
2018-07-02T17:38:53.153Z,25.90
2018-07-02T17:41:21.507Z,25.70
2018-07-02T17:43:49.897Z,25.50
2018-07-02T17:46:18.353Z,25.40
2018-07-02T17:48:46.787Z,25.30
2018-07-02T17:51:15.219Z,25.20
2018-07-02T17:53:43.586Z,25.00
2018-07-02T17:56:11.946Z,24.90
2018-07-02T17:58:40.335Z,24.80
2018-07-02T18:01:08.683Z,24.70
2018-07-02T18:03:37.121Z,24.60
2018-07-02T18:06:05.891Z,24.50
2018-07-02T18:08:34.386Z,24.40
2018-07-02T18:11:02.843Z,24.50
2018-07-02T18:13:31.251Z,24.40
2018-07-02T18:15:59.691Z,24.40
2018-07-02T18:18:28.196Z,24.30
2018-07-02T18:20:56.590Z,24.30
2018-07-02T18:23:24.997Z,24.30
2018-07-02T18:25:53.436Z,24.20
2018-07-02T18:28:21.808Z,24.00
2018-07-02T18:30:50.223Z,24.00
2018-07-02T18:33:18.599Z,23.90
2018-07-02T18:35:47.093Z,23.80
2018-07-02T18:38:15.484Z,23.60
2018-07-02T18:40:43.985Z,23.60
2018-07-02T18:43:12.503Z,23.60
2018-07-02T18:45:40.941Z,23.50
2018-07-02T18:48:09.380Z,23.40
2018-07-02T18:50:37.765Z,23.40
2018-07-02T18:53:06.252Z,23.20
2018-07-02T18:55:34.658Z,23.20
2018-07-02T18:58:03.038Z,23.10
2018-07-02T19:00:31.434Z,23.00
2018-07-02T19:02:59.784Z,22.80
2018-07-02T19:05:28.167Z,22.70
2018-07-02T19:07:56.589Z,22.50
2018-07-02T19:10:24.999Z,22.40
2018-07-02T19:12:53.451Z,22.40
2018-07-02T19:15:21.965Z,22.40
2018-07-02T19:17:50.357Z,22.20
2018-07-02T19:20:18.715Z,22.10
2018-07-02T19:22:47.081Z,22.00
2018-07-02T19:25:15.491Z,22.00
2018-07-02T19:30:11.972Z,21.70
2018-07-02T19:32:40.399Z,21.40
2018-07-02T19:35:08.825Z,21.30
2018-07-02T19:37:37.277Z,21.10
2018-07-02T19:40:05.683Z,20.90
2018-07-02T19:42:34.073Z,20.60
2018-07-02T19:45:02.610Z,20.50
2018-07-02T19:47:31.043Z,20.40
2018-07-02T19:49:59.525Z,20.40
2018-07-02T19:52:28.246Z,20.20
2018-07-02T19:54:56.655Z,20.10
2018-07-02T19:57:25.865Z,20.00
2018-07-02T19:59:54.261Z,20.00
2018-07-02T20:02:22.648Z,19.90
2018-07-02T20:04:51.038Z,19.70
2018-07-02T20:07:19.524Z,19.60
2018-07-02T20:09:48.662Z,19.50
2018-07-02T20:12:17.030Z,19.40
2018-07-02T20:14:45.470Z,19.20
2018-07-02T20:17:13.853Z,19.10
2018-07-02T20:19:42.201Z,18.90
2018-07-02T20:22:10.552Z,18.90
2018-07-02T20:24:38.890Z,18.80
2018-07-02T20:27:07.309Z,18.90
2018-07-02T20:29:35.759Z,18.70
2018-07-02T20:32:04.144Z,18.60
2018-07-02T20:34:33.353Z,18.60
2018-07-02T20:37:01.705Z,18.40
2018-07-02T20:39:30.107Z,18.30
2018-07-02T20:41:58.475Z,18.20
2018-07-02T20:44:26.840Z,18.00
2018-07-02T20:46:55.259Z,18.00
2018-07-02T20:49:23.649Z,18.00
2018-07-02T20:51:52.031Z,17.80
2018-07-02T20:54:20.430Z,17.70
2018-07-02T20:56:48.798Z,17.70
2018-07-02T20:59:17.228Z,17.50
2018-07-02T21:01:45.583Z,17.40
2018-07-02T21:04:13.954Z,17.30
2018-07-02T21:06:42.336Z,17.30
2018-07-02T21:09:11.551Z,17.20
2018-07-02T21:11:39.912Z,17.10
2018-07-02T21:14:08.313Z,17.10
2018-07-02T21:16:37.130Z,17.00
2018-07-02T21:19:05.691Z,16.90
2018-07-02T21:21:34.105Z,16.80
2018-07-02T21:24:02.489Z,16.80
2018-07-02T21:26:30.935Z,16.70
2018-07-02T21:28:59.277Z,16.70
2018-07-02T21:31:27.685Z,16.60
2018-07-02T21:33:56.068Z,16.70
2018-07-02T21:36:24.478Z,16.50
2018-07-02T21:38:52.952Z,16.40
2018-07-02T21:41:21.385Z,16.30
2018-07-02T21:43:49.742Z,16.30
2018-07-02T21:46:18.224Z,16.20
2018-07-02T21:48:46.658Z,16.10
2018-07-02T21:51:15.073Z,16.00
2018-07-02T21:53:43.479Z,15.90
2018-07-02T21:56:11.860Z,15.80
2018-07-02T21:58:40.340Z,15.60
2018-07-02T22:03:36.797Z,15.50
2018-07-02T22:06:05.298Z,15.40
2018-07-02T22:08:33.775Z,15.40
2018-07-02T22:11:02.396Z,15.40
2018-07-02T22:13:30.773Z,15.40
2018-07-02T22:15:59.256Z,15.30
2018-07-02T22:20:56.015Z,15.20
2018-07-02T22:25:52.506Z,15.30
2018-07-02T22:28:20.892Z,15.30
2018-07-02T22:30:49.368Z,15.20
2018-07-02T22:33:18.032Z,15.10
2018-07-02T22:35:46.415Z,14.90
2018-07-02T22:38:14.856Z,14.80
2018-07-02T22:40:43.195Z,14.80
2018-07-02T22:43:11.595Z,14.70
2018-07-02T22:45:40.018Z,14.60
2018-07-02T22:48:08.388Z,14.60
2018-07-02T22:50:37.734Z,14.60
2018-07-02T22:53:06.256Z,14.50
2018-07-02T22:56:01.324Z,14.40
2018-07-02T22:58:29.712Z,14.40
2018-07-02T23:00:58.985Z,14.40
2018-07-02T23:03:27.582Z,14.30
2018-07-02T23:05:56.397Z,14.30
2018-07-02T23:08:25.933Z,14.20
2018-07-02T23:10:54.296Z,14.20
2018-07-02T23:13:23.377Z,14.20
2018-07-02T23:15:55.937Z,14.20
2018-07-02T23:18:24.876Z,14.20
2018-07-02T23:20:53.240Z,14.10
2018-07-02T23:23:21.561Z,14.10
2018-07-02T23:25:49.945Z,14.10
2018-07-02T23:28:18.487Z,14.10
2018-07-02T23:30:46.762Z,14.10
2018-07-02T23:33:15.078Z,14.10
2018-07-02T23:35:43.519Z,14.20
2018-07-02T23:38:11.962Z,14.30
2018-07-02T23:40:40.281Z,14.30
2018-07-02T23:43:08.622Z,14.30
2018-07-02T23:45:37.050Z,14.30
2018-07-02T23:48:05.642Z,14.30
2018-07-02T23:50:33.977Z,14.20
2018-07-02T23:53:02.370Z,14.20
2018-07-02T23:55:30.675Z,14.20
2018-07-02T23:57:59.046Z,14.20
